sensor_id;sensor_type;location;lat;lon;timestamp;P1;durP1;ratioP1;P2;durP2;ratioP2
38715;SDS011;24833;49.324;8.694;2023-07-20T00:00:13;1.10;;;0.82;;
38715;SDS011;24833;49.324;8.694;2023-07-20T00:02:42;2.05;;;1.17;;
38715;SDS011;24833;49.324;8.694;2023-07-20T00:05:09;1.67;;;1.20;;
38715;SDS011;24833;49.324;8.694;2023-07-20T00:07:36;2.20;;;1.20;;
38715;SDS011;24833;49.324;8.694;2023-07-20T00:10:03;1.63;;;1.10;;
38715;SDS011;24833;49.324;8.694;2023-07-20T00:12:31;3.92;;;1.40;;
38715;SDS011;24833;49.324;8.694;2023-07-20T00:14:58;3.05;;;1.35;;
38715;SDS011;24833;49.324;8.694;2023-07-20T00:17:25;3.10;;;1.30;;
38715;SDS011;24833;49.324;8.694;2023-07-20T00:19:52;1.42;;;0.95;;
38715;SDS011;24833;49.324;8.694;2023-07-20T00:22:19;1.23;;;1.10;;
38715;SDS011;24833;49.324;8.694;2023-07-20T00:24:46;2.97;;;1.42;;
38715;SDS011;24833;49.324;8.694;2023-07-20T00:27:13;1.23;;;1.13;;
38715;SDS011;24833;49.324;8.694;2023-07-20T00:29:40;4.05;;;1.20;;
38715;SDS011;24833;49.324;8.694;2023-07-20T00:32:08;3.83;;;1.27;;
38715;SDS011;24833;49.324;8.694;2023-07-20T00:34:35;2.70;;;1.20;;
38715;SDS011;24833;49.324;8.694;2023-07-20T00:37:02;1.80;;;0.95;;
38715;SDS011;24833;49.324;8.694;2023-07-20T00:39:29;1.58;;;1.20;;
38715;SDS011;24833;49.324;8.694;2023-07-20T00:41:58;2.20;;;1.38;;
38715;SDS011;24833;49.324;8.694;2023-07-20T00:44:25;1.30;;;1.08;;
38715;SDS011;24833;49.324;8.694;2023-07-20T00:46:52;1.70;;;1.40;;
38715;SDS011;24833;49.324;8.694;2023-07-20T00:49:19;1.83;;;1.00;;
38715;SDS011;24833;49.324;8.694;2023-07-20T00:51:48;2.08;;;1.02;;
38715;SDS011;24833;49.324;8.694;2023-07-20T00:54:15;2.58;;;1.30;;
38715;SDS011;24833;49.324;8.694;2023-07-20T00:56:43;1.52;;;0.98;;
38715;SDS011;24833;49.324;8.694;2023-07-20T00:59:12;1.63;;;1.20;;
38715;SDS011;24833;49.324;8.694;2023-07-20T01:01:40;2.30;;;1.27;;
38715;SDS011;24833;49.324;8.694;2023-07-20T01:04:07;2.15;;;1.27;;
38715;SDS011;24833;49.324;8.694;2023-07-20T01:09:23;2.10;;;1.38;;
38715;SDS011;24833;49.324;8.694;2023-07-20T01:15:07;2.28;;;1.45;;
38715;SDS011;24833;49.324;8.694;2023-07-20T01:17:35;1.45;;;1.20;;
38715;SDS011;24833;49.324;8.694;2023-07-20T01:20:02;1.13;;;0.85;;
38715;SDS011;24833;49.324;8.694;2023-07-20T01:33:54;2.45;;;1.40;;
38715;SDS011;24833;49.324;8.694;2023-07-20T01:36:24;1.40;;;1.00;;
38715;SDS011;24833;49.324;8.694;2023-07-20T01:38:55;1.98;;;1.35;;
38715;SDS011;24833;49.324;8.694;2023-07-20T01:41:23;3.63;;;1.30;;
38715;SDS011;24833;49.324;8.694;2023-07-20T01:43:50;2.45;;;1.38;;
38715;SDS011;24833;49.324;8.694;2023-07-20T01:46:17;1.63;;;1.02;;
38715;SDS011;24833;49.324;8.694;2023-07-20T01:48:45;1.63;;;1.05;;
38715;SDS011;24833;49.324;8.694;2023-07-20T01:51:12;1.83;;;1.48;;
38715;SDS011;24833;49.324;8.694;2023-07-20T01:53:40;2.67;;;1.40;;
38715;SDS011;24833;49.324;8.694;2023-07-20T01:56:07;1.23;;;1.10;;
38715;SDS011;24833;49.324;8.694;2023-07-20T01:58:34;1.52;;;1.13;;
38715;SDS011;24833;49.324;8.694;2023-07-20T02:01:01;2.22;;;1.60;;
38715;SDS011;24833;49.324;8.694;2023-07-20T02:03:29;1.58;;;1.13;;
38715;SDS011;24833;49.324;8.694;2023-07-20T02:05:56;3.67;;;1.35;;
38715;SDS011;24833;49.324;8.694;2023-07-20T02:08:24;1.48;;;1.10;;
38715;SDS011;24833;49.324;8.694;2023-07-20T02:10:54;1.43;;;1.10;;
38715;SDS011;24833;49.324;8.694;2023-07-20T02:13:21;2.10;;;1.30;;
38715;SDS011;24833;49.324;8.694;2023-07-20T02:15:48;1.75;;;1.25;;
38715;SDS011;24833;49.324;8.694;2023-07-20T02:18:15;1.75;;;1.30;;
38715;SDS011;24833;49.324;8.694;2023-07-20T02:20:43;1.45;;;1.30;;
38715;SDS011;24833;49.324;8.694;2023-07-20T02:23:10;1.98;;;1.25;;
38715;SDS011;24833;49.324;8.694;2023-07-20T02:25:37;2.45;;;1.20;;
38715;SDS011;24833;49.324;8.694;2023-07-20T02:28:06;1.85;;;1.30;;
38715;SDS011;24833;49.324;8.694;2023-07-20T02:30:38;3.78;;;1.42;;
38715;SDS011;24833;49.324;8.694;2023-07-20T02:33:06;2.03;;;1.58;;
38715;SDS011;24833;49.324;8.694;2023-07-20T02:35:34;2.55;;;1.45;;
38715;SDS011;24833;49.324;8.694;2023-07-20T02:38:01;4.32;;;1.40;;
38715;SDS011;24833;49.324;8.694;2023-07-20T02:40:28;1.63;;;1.50;;
38715;SDS011;24833;49.324;8.694;2023-07-20T02:42:55;1.90;;;1.38;;
38715;SDS011;24833;49.324;8.694;2023-07-20T02:45:22;1.80;;;1.17;;
38715;SDS011;24833;49.324;8.694;2023-07-20T02:47:50;1.80;;;1.52;;
38715;SDS011;24833;49.324;8.694;2023-07-20T02:50:18;1.27;;;1.23;;
38715;SDS011;24833;49.324;8.694;2023-07-20T02:52:45;3.55;;;1.33;;
38715;SDS011;24833;49.324;8.694;2023-07-20T02:55:12;2.30;;;1.67;;
38715;SDS011;24833;49.324;8.694;2023-07-20T02:57:39;1.55;;;1.20;;
38715;SDS011;24833;49.324;8.694;2023-07-20T03:00:06;1.98;;;1.50;;
38715;SDS011;24833;49.324;8.694;2023-07-20T03:02:34;3.28;;;1.75;;
38715;SDS011;24833;49.324;8.694;2023-07-20T03:05:01;2.03;;;1.60;;
38715;SDS011;24833;49.324;8.694;2023-07-20T03:07:32;2.40;;;1.55;;
38715;SDS011;24833;49.324;8.694;2023-07-20T03:09:59;2.78;;;1.67;;
38715;SDS011;24833;49.324;8.694;2023-07-20T03:12:26;2.35;;;1.63;;
38715;SDS011;24833;49.324;8.694;2023-07-20T03:14:54;2.13;;;1.40;;
38715;SDS011;24833;49.324;8.694;2023-07-20T03:17:24;2.45;;;1.58;;
38715;SDS011;24833;49.324;8.694;2023-07-20T03:19:55;1.85;;;1.42;;
38715;SDS011;24833;49.324;8.694;2023-07-20T03:22:22;2.78;;;1.50;;
38715;SDS011;24833;49.324;8.694;2023-07-20T03:24:50;4.00;;;2.15;;
38715;SDS011;24833;49.324;8.694;2023-07-20T03:27:19;2.47;;;1.50;;
38715;SDS011;24833;49.324;8.694;2023-07-20T03:29:46;3.20;;;1.80;;
38715;SDS011;24833;49.324;8.694;2023-07-20T03:32:13;3.42;;;1.63;;
38715;SDS011;24833;49.324;8.694;2023-07-20T03:34:41;1.90;;;1.50;;
38715;SDS011;24833;49.324;8.694;2023-07-20T03:37:08;2.40;;;1.60;;
38715;SDS011;24833;49.324;8.694;2023-07-20T03:39:35;2.22;;;1.45;;
38715;SDS011;24833;49.324;8.694;2023-07-20T03:42:03;3.15;;;1.70;;
38715;SDS011;24833;49.324;8.694;2023-07-20T03:44:33;1.60;;;1.50;;
38715;SDS011;24833;49.324;8.694;2023-07-20T03:47:00;3.05;;;1.80;;
38715;SDS011;24833;49.324;8.694;2023-07-20T03:49:27;4.28;;;1.77;;
38715;SDS011;24833;49.324;8.694;2023-07-20T03:51:55;2.08;;;1.45;;
38715;SDS011;24833;49.324;8.694;2023-07-20T03:54:22;2.55;;;1.55;;
38715;SDS011;24833;49.324;8.694;2023-07-20T03:56:49;2.15;;;1.45;;
38715;SDS011;24833;49.324;8.694;2023-07-20T03:59:16;4.63;;;1.45;;
38715;SDS011;24833;49.324;8.694;2023-07-20T04:01:43;2.17;;;1.70;;
38715;SDS011;24833;49.324;8.694;2023-07-20T04:04:11;1.20;;;1.10;;
38715;SDS011;24833;49.324;8.694;2023-07-20T04:06:38;2.75;;;1.40;;
38715;SDS011;24833;49.324;8.694;2023-07-20T04:09:05;2.45;;;1.63;;
38715;SDS011;24833;49.324;8.694;2023-07-20T04:11:32;2.90;;;1.65;;
38715;SDS011;24833;49.324;8.694;2023-07-20T04:13:59;1.55;;;1.40;;
38715;SDS011;24833;49.324;8.694;2023-07-20T04:16:26;4.18;;;1.48;;
38715;SDS011;24833;49.324;8.694;2023-07-20T04:18:57;2.38;;;1.48;;
38715;SDS011;24833;49.324;8.694;2023-07-20T04:21:26;2.35;;;1.50;;
38715;SDS011;24833;49.324;8.694;2023-07-20T04:23:54;2.97;;;1.45;;
38715;SDS011;24833;49.324;8.694;2023-07-20T04:26:21;1.85;;;1.48;;
38715;SDS011;24833;49.324;8.694;2023-07-20T04:28:49;1.90;;;1.35;;
38715;SDS011;24833;49.324;8.694;2023-07-20T04:31:30;2.38;;;1.75;;
38715;SDS011;24833;49.324;8.694;2023-07-20T04:33:59;2.83;;;1.60;;
38715;SDS011;24833;49.324;8.694;2023-07-20T04:36:27;2.20;;;1.40;;
38715;SDS011;24833;49.324;8.694;2023-07-20T04:38:54;2.28;;;1.40;;
38715;SDS011;24833;49.324;8.694;2023-07-20T04:41:22;1.70;;;1.35;;
38715;SDS011;24833;49.324;8.694;2023-07-20T04:43:51;1.98;;;1.50;;
38715;SDS011;24833;49.324;8.694;2023-07-20T04:46:27;1.85;;;1.20;;
38715;SDS011;24833;49.324;8.694;2023-07-20T04:48:55;1.98;;;1.40;;
38715;SDS011;24833;49.324;8.694;2023-07-20T04:51:23;2.42;;;1.38;;
38715;SDS011;24833;49.324;8.694;2023-07-20T04:53:53;2.58;;;1.40;;
38715;SDS011;24833;49.324;8.694;2023-07-20T04:56:21;2.22;;;1.38;;
38715;SDS011;24833;49.324;8.694;2023-07-20T04:58:50;3.22;;;1.33;;
38715;SDS011;24833;49.324;8.694;2023-07-20T05:01:18;2.05;;;1.45;;
38715;SDS011;24833;49.324;8.694;2023-07-20T05:03:45;2.22;;;1.60;;
38715;SDS011;24833;49.324;8.694;2023-07-20T05:06:13;3.20;;;1.70;;
38715;SDS011;24833;49.324;8.694;2023-07-20T05:08:40;1.83;;;1.35;;
38715;SDS011;24833;49.324;8.694;2023-07-20T05:11:07;2.85;;;2.00;;
38715;SDS011;24833;49.324;8.694;2023-07-20T05:13:34;2.42;;;1.52;;
38715;SDS011;24833;49.324;8.694;2023-07-20T05:16:02;3.75;;;1.50;;
38715;SDS011;24833;49.324;8.694;2023-07-20T05:18:31;4.82;;;1.50;;
38715;SDS011;24833;49.324;8.694;2023-07-20T05:20:59;2.20;;;1.83;;
38715;SDS011;24833;49.324;8.694;2023-07-20T05:23:26;2.88;;;1.50;;
38715;SDS011;24833;49.324;8.694;2023-07-20T05:25:57;2.70;;;1.60;;
38715;SDS011;24833;49.324;8.694;2023-07-20T05:28:25;4.20;;;1.70;;
38715;SDS011;24833;49.324;8.694;2023-07-20T05:30:53;2.25;;;1.58;;
38715;SDS011;24833;49.324;8.694;2023-07-20T05:33:20;1.88;;;1.45;;
38715;SDS011;24833;49.324;8.694;2023-07-20T05:35:48;1.83;;;1.33;;
38715;SDS011;24833;49.324;8.694;2023-07-20T05:38:15;1.40;;;1.20;;
38715;SDS011;24833;49.324;8.694;2023-07-20T05:40:43;2.55;;;1.63;;
38715;SDS011;24833;49.324;8.694;2023-07-20T05:43:11;1.27;;;1.17;;
38715;SDS011;24833;49.324;8.694;2023-07-20T05:45:42;2.65;;;1.80;;
38715;SDS011;24833;49.324;8.694;2023-07-20T05:48:11;2.67;;;1.42;;
38715;SDS011;24833;49.324;8.694;2023-07-20T05:50:42;2.08;;;1.63;;
38715;SDS011;24833;49.324;8.694;2023-07-20T05:53:10;3.95;;;1.65;;
38715;SDS011;24833;49.324;8.694;2023-07-20T05:55:38;4.63;;;1.58;;
38715;SDS011;24833;49.324;8.694;2023-07-20T05:58:06;4.90;;;1.70;;
38715;SDS011;24833;49.324;8.694;2023-07-20T06:00:33;2.15;;;1.35;;
38715;SDS011;24833;49.324;8.694;2023-07-20T06:03:00;1.75;;;1.40;;
38715;SDS011;24833;49.324;8.694;2023-07-20T06:05:29;2.50;;;1.30;;
38715;SDS011;24833;49.324;8.694;2023-07-20T06:07:56;3.08;;;1.60;;
38715;SDS011;24833;49.324;8.694;2023-07-20T06:10:24;4.78;;;1.80;;
38715;SDS011;24833;49.324;8.694;2023-07-20T06:12:51;5.03;;;1.73;;
38715;SDS011;24833;49.324;8.694;2023-07-20T06:15:31;3.33;;;1.30;;
38715;SDS011;24833;49.324;8.694;2023-07-20T06:18:02;2.47;;;1.38;;
38715;SDS011;24833;49.324;8.694;2023-07-20T06:20:30;5.18;;;1.50;;
38715;SDS011;24833;49.324;8.694;2023-07-20T06:22:57;1.67;;;1.38;;
38715;SDS011;24833;49.324;8.694;2023-07-20T06:25:24;2.72;;;1.60;;
38715;SDS011;24833;49.324;8.694;2023-07-20T06:27:51;1.85;;;1.65;;
38715;SDS011;24833;49.324;8.694;2023-07-20T06:30:19;2.08;;;1.45;;
38715;SDS011;24833;49.324;8.694;2023-07-20T06:32:46;2.67;;;1.48;;
38715;SDS011;24833;49.324;8.694;2023-07-20T06:35:14;2.10;;;1.67;;
38715;SDS011;24833;49.324;8.694;2023-07-20T06:37:42;3.40;;;1.80;;
38715;SDS011;24833;49.324;8.694;2023-07-20T06:40:09;3.55;;;1.70;;
38715;SDS011;24833;49.324;8.694;2023-07-20T06:42:40;3.28;;;1.60;;
38715;SDS011;24833;49.324;8.694;2023-07-20T06:45:10;2.08;;;1.42;;
38715;SDS011;24833;49.324;8.694;2023-07-20T06:47:40;2.75;;;1.60;;
38715;SDS011;24833;49.324;8.694;2023-07-20T06:50:08;3.28;;;1.48;;
38715;SDS011;24833;49.324;8.694;2023-07-20T06:52:43;3.33;;;1.80;;
38715;SDS011;24833;49.324;8.694;2023-07-20T06:55:10;5.13;;;1.40;;
38715;SDS011;24833;49.324;8.694;2023-07-20T06:57:37;1.75;;;1.52;;
38715;SDS011;24833;49.324;8.694;2023-07-20T07:00:04;1.85;;;1.42;;
38715;SDS011;24833;49.324;8.694;2023-07-20T07:02:33;2.20;;;1.35;;
38715;SDS011;24833;49.324;8.694;2023-07-20T07:05:01;3.75;;;1.52;;
38715;SDS011;24833;49.324;8.694;2023-07-20T07:07:44;2.45;;;1.80;;
38715;SDS011;24833;49.324;8.694;2023-07-20T07:10:11;2.60;;;1.85;;
38715;SDS011;24833;49.324;8.694;2023-07-20T07:12:39;3.15;;;1.58;;
38715;SDS011;24833;49.324;8.694;2023-07-20T07:15:07;3.17;;;1.83;;
38715;SDS011;24833;49.324;8.694;2023-07-20T07:17:37;3.23;;;1.73;;
38715;SDS011;24833;49.324;8.694;2023-07-20T07:20:05;3.90;;;2.00;;
38715;SDS011;24833;49.324;8.694;2023-07-20T07:22:36;4.45;;;1.60;;
38715;SDS011;24833;49.324;8.694;2023-07-20T07:25:04;4.15;;;2.00;;
38715;SDS011;24833;49.324;8.694;2023-07-20T07:27:32;4.13;;;2.00;;
38715;SDS011;24833;49.324;8.694;2023-07-20T07:29:59;4.20;;;1.70;;
38715;SDS011;24833;49.324;8.694;2023-07-20T07:32:26;3.05;;;1.50;;
38715;SDS011;24833;49.324;8.694;2023-07-20T07:34:53;4.60;;;2.45;;
38715;SDS011;24833;49.324;8.694;2023-07-20T07:37:21;2.25;;;1.70;;
38715;SDS011;24833;49.324;8.694;2023-07-20T07:39:49;4.60;;;1.95;;
38715;SDS011;24833;49.324;8.694;2023-07-20T07:42:16;3.13;;;1.58;;
38715;SDS011;24833;49.324;8.694;2023-07-20T07:44:45;2.70;;;1.80;;
38715;SDS011;24833;49.324;8.694;2023-07-20T07:47:12;4.97;;;1.98;;
38715;SDS011;24833;49.324;8.694;2023-07-20T07:49:39;5.18;;;1.85;;
38715;SDS011;24833;49.324;8.694;2023-07-20T07:52:06;1.48;;;1.27;;
38715;SDS011;24833;49.324;8.694;2023-07-20T07:54:33;1.63;;;1.48;;
38715;SDS011;24833;49.324;8.694;2023-07-20T07:57:00;2.55;;;1.30;;
38715;SDS011;24833;49.324;8.694;2023-07-20T07:59:27;2.83;;;1.40;;
38715;SDS011;24833;49.324;8.694;2023-07-20T08:01:55;2.90;;;1.50;;
38715;SDS011;24833;49.324;8.694;2023-07-20T08:04:23;6.07;;;2.58;;
38715;SDS011;24833;49.324;8.694;2023-07-20T08:06:50;1.60;;;1.23;;
38715;SDS011;24833;49.324;8.694;2023-07-20T08:09:17;3.10;;;1.58;;
38715;SDS011;24833;49.324;8.694;2023-07-20T08:11:44;1.63;;;1.02;;
38715;SDS011;24833;49.324;8.694;2023-07-20T08:14:11;1.80;;;1.30;;
38715;SDS011;24833;49.324;8.694;2023-07-20T08:16:38;1.20;;;1.10;;
38715;SDS011;24833;49.324;8.694;2023-07-20T08:19:05;2.33;;;1.08;;
38715;SDS011;24833;49.324;8.694;2023-07-20T08:21:32;2.80;;;1.23;;
38715;SDS011;24833;49.324;8.694;2023-07-20T08:23:59;1.55;;;1.05;;
38715;SDS011;24833;49.324;8.694;2023-07-20T08:26:26;3.25;;;1.30;;
38715;SDS011;24833;49.324;8.694;2023-07-20T08:28:54;1.85;;;1.02;;
38715;SDS011;24833;49.324;8.694;2023-07-20T08:31:21;2.60;;;1.27;;
38715;SDS011;24833;49.324;8.694;2023-07-20T08:33:48;2.92;;;1.20;;
38715;SDS011;24833;49.324;8.694;2023-07-20T08:36:16;1.65;;;1.05;;
38715;SDS011;24833;49.324;8.694;2023-07-20T08:38:43;3.80;;;1.02;;
38715;SDS011;24833;49.324;8.694;2023-07-20T08:41:10;1.23;;;1.00;;
38715;SDS011;24833;49.324;8.694;2023-07-20T08:43:37;2.78;;;1.15;;
38715;SDS011;24833;49.324;8.694;2023-07-20T08:46:10;2.70;;;1.20;;
38715;SDS011;24833;49.324;8.694;2023-07-20T08:48:39;1.50;;;1.20;;
38715;SDS011;24833;49.324;8.694;2023-07-20T08:51:08;3.20;;;1.02;;
38715;SDS011;24833;49.324;8.694;2023-07-20T08:53:37;4.15;;;1.50;;
38715;SDS011;24833;49.324;8.694;2023-07-20T08:56:05;2.40;;;1.08;;
38715;SDS011;24833;49.324;8.694;2023-07-20T08:58:32;2.13;;;0.90;;
38715;SDS011;24833;49.324;8.694;2023-07-20T09:01:01;3.10;;;0.80;;
38715;SDS011;24833;49.324;8.694;2023-07-20T09:03:29;1.40;;;1.00;;
38715;SDS011;24833;49.324;8.694;2023-07-20T09:05:56;1.55;;;1.15;;
38715;SDS011;24833;49.324;8.694;2023-07-20T09:08:24;1.73;;;1.20;;
38715;SDS011;24833;49.324;8.694;2023-07-20T09:10:51;1.10;;;0.95;;
38715;SDS011;24833;49.324;8.694;2023-07-20T09:13:18;3.15;;;1.30;;
38715;SDS011;24833;49.324;8.694;2023-07-20T09:15:47;4.72;;;1.52;;
38715;SDS011;24833;49.324;8.694;2023-07-20T09:18:23;1.13;;;1.02;;
38715;SDS011;24833;49.324;8.694;2023-07-20T09:20:58;2.35;;;1.25;;
38715;SDS011;24833;49.324;8.694;2023-07-20T09:23:34;2.22;;;1.50;;
38715;SDS011;24833;49.324;8.694;2023-07-20T09:26:14;1.80;;;1.33;;
38715;SDS011;24833;49.324;8.694;2023-07-20T09:28:51;1.95;;;1.33;;
38715;SDS011;24833;49.324;8.694;2023-07-20T09:31:20;2.53;;;1.40;;
38715;SDS011;24833;49.324;8.694;2023-07-20T09:33:50;5.82;;;1.80;;
38715;SDS011;24833;49.324;8.694;2023-07-20T09:36:23;1.73;;;1.13;;
38715;SDS011;24833;49.324;8.694;2023-07-20T09:39:12;2.85;;;1.30;;
38715;SDS011;24833;49.324;8.694;2023-07-20T09:41:54;1.40;;;1.13;;
38715;SDS011;24833;49.324;8.694;2023-07-20T09:44:29;2.92;;;1.80;;
38715;SDS011;24833;49.324;8.694;2023-07-20T09:46:59;2.85;;;1.13;;
38715;SDS011;24833;49.324;8.694;2023-07-20T09:49:28;2.35;;;1.40;;
38715;SDS011;24833;49.324;8.694;2023-07-20T09:51:59;1.30;;;1.20;;
38715;SDS011;24833;49.324;8.694;2023-07-20T09:54:29;2.20;;;1.30;;
38715;SDS011;24833;49.324;8.694;2023-07-20T09:56:56;4.03;;;1.55;;
38715;SDS011;24833;49.324;8.694;2023-07-20T09:59:24;1.27;;;1.10;;
38715;SDS011;24833;49.324;8.694;2023-07-20T10:01:51;1.98;;;1.45;;
38715;SDS011;24833;49.324;8.694;2023-07-20T10:04:23;1.33;;;0.90;;
38715;SDS011;24833;49.324;8.694;2023-07-20T10:06:52;2.33;;;1.20;;
38715;SDS011;24833;49.324;8.694;2023-07-20T10:09:22;1.98;;;1.13;;
38715;SDS011;24833;49.324;8.694;2023-07-20T10:11:52;1.33;;;1.17;;
38715;SDS011;24833;49.324;8.694;2023-07-20T10:14:41;3.13;;;1.42;;
38715;SDS011;24833;49.324;8.694;2023-07-20T10:17:17;5.93;;;1.20;;
38715;SDS011;24833;49.324;8.694;2023-07-20T10:19:49;1.38;;;1.05;;
38715;SDS011;24833;49.324;8.694;2023-07-20T10:22:25;1.83;;;1.27;;
38715;SDS011;24833;49.324;8.694;2023-07-20T10:24:53;2.45;;;1.30;;
38715;SDS011;24833;49.324;8.694;2023-07-20T10:27:20;2.55;;;1.13;;
38715;SDS011;24833;49.324;8.694;2023-07-20T10:29:48;3.28;;;1.02;;
38715;SDS011;24833;49.324;8.694;2023-07-20T10:32:16;4.35;;;1.27;;
38715;SDS011;24833;49.324;8.694;2023-07-20T10:34:51;1.17;;;0.80;;
38715;SDS011;24833;49.324;8.694;2023-07-20T10:37:45;2.40;;;1.13;;
38715;SDS011;24833;49.324;8.694;2023-07-20T10:43:06;1.88;;;0.98;;
38715;SDS011;24833;49.324;8.694;2023-07-20T10:45:36;1.10;;;1.00;;
38715;SDS011;24833;49.324;8.694;2023-07-20T10:48:20;2.97;;;1.15;;
38715;SDS011;24833;49.324;8.694;2023-07-20T10:51:09;2.20;;;1.30;;
38715;SDS011;24833;49.324;8.694;2023-07-20T10:53:40;1.25;;;0.95;;
38715;SDS011;24833;49.324;8.694;2023-07-20T10:58:40;0.93;;;0.80;;
38715;SDS011;24833;49.324;8.694;2023-07-20T11:01:20;1.30;;;1.10;;
38715;SDS011;24833;49.324;8.694;2023-07-20T11:03:49;2.67;;;0.80;;
38715;SDS011;24833;49.324;8.694;2023-07-20T11:08:55;2.78;;;1.30;;
38715;SDS011;24833;49.324;8.694;2023-07-20T11:13:58;4.82;;;1.08;;
38715;SDS011;24833;49.324;8.694;2023-07-20T11:19:23;1.55;;;1.15;;
38715;SDS011;24833;49.324;8.694;2023-07-20T11:21:56;1.95;;;1.25;;
38715;SDS011;24833;49.324;8.694;2023-07-20T11:24:29;4.93;;;1.30;;
38715;SDS011;24833;49.324;8.694;2023-07-20T11:26:58;4.18;;;1.00;;
38715;SDS011;24833;49.324;8.694;2023-07-20T11:29:26;1.58;;;1.17;;
38715;SDS011;24833;49.324;8.694;2023-07-20T11:32:00;2.58;;;1.20;;
38715;SDS011;24833;49.324;8.694;2023-07-20T11:34:32;1.00;;;0.80;;
38715;SDS011;24833;49.324;8.694;2023-07-20T11:37:01;2.83;;;1.30;;
38715;SDS011;24833;49.324;8.694;2023-07-20T11:39:32;1.48;;;1.00;;
38715;SDS011;24833;49.324;8.694;2023-07-20T11:42:00;1.30;;;1.00;;
38715;SDS011;24833;49.324;8.694;2023-07-20T11:44:27;1.83;;;0.98;;
38715;SDS011;24833;49.324;8.694;2023-07-20T11:47:00;2.97;;;1.33;;
38715;SDS011;24833;49.324;8.694;2023-07-20T11:49:30;1.42;;;0.90;;
38715;SDS011;24833;49.324;8.694;2023-07-20T11:52:13;2.10;;;0.98;;
38715;SDS011;24833;49.324;8.694;2023-07-20T11:54:43;1.15;;;0.90;;
38715;SDS011;24833;49.324;8.694;2023-07-20T11:57:16;2.15;;;1.08;;
38715;SDS011;24833;49.324;8.694;2023-07-20T12:02:28;1.17;;;1.08;;
38715;SDS011;24833;49.324;8.694;2023-07-20T12:04:56;2.90;;;1.55;;
38715;SDS011;24833;49.324;8.694;2023-07-20T12:07:25;1.42;;;0.90;;
38715;SDS011;24833;49.324;8.694;2023-07-20T12:10:07;6.20;;;1.30;;
38715;SDS011;24833;49.324;8.694;2023-07-20T12:12:37;1.60;;;1.05;;
38715;SDS011;24833;49.324;8.694;2023-07-20T12:15:14;1.80;;;1.02;;
38715;SDS011;24833;49.324;8.694;2023-07-20T12:17:52;3.15;;;1.23;;
38715;SDS011;24833;49.324;8.694;2023-07-20T12:23:03;0.73;;;0.60;;
38715;SDS011;24833;49.324;8.694;2023-07-20T12:28:10;1.25;;;1.02;;
38715;SDS011;24833;49.324;8.694;2023-07-20T12:30:42;0.75;;;0.75;;
38715;SDS011;24833;49.324;8.694;2023-07-20T12:33:11;2.03;;;0.98;;
38715;SDS011;24833;49.324;8.694;2023-07-20T12:35:42;1.10;;;0.88;;
38715;SDS011;24833;49.324;8.694;2023-07-20T12:40:39;1.35;;;0.90;;
38715;SDS011;24833;49.324;8.694;2023-07-20T12:43:07;1.08;;;0.68;;
38715;SDS011;24833;49.324;8.694;2023-07-20T12:45:34;1.63;;;1.00;;
38715;SDS011;24833;49.324;8.694;2023-07-20T12:48:01;0.98;;;0.88;;
38715;SDS011;24833;49.324;8.694;2023-07-20T12:50:28;1.52;;;0.80;;
38715;SDS011;24833;49.324;8.694;2023-07-20T12:52:56;2.05;;;0.98;;
38715;SDS011;24833;49.324;8.694;2023-07-20T12:55:23;0.80;;;0.80;;
38715;SDS011;24833;49.324;8.694;2023-07-20T12:57:50;2.10;;;1.00;;
38715;SDS011;24833;49.324;8.694;2023-07-20T13:00:17;1.63;;;0.90;;
38715;SDS011;24833;49.324;8.694;2023-07-20T13:02:44;2.38;;;1.10;;
38715;SDS011;24833;49.324;8.694;2023-07-20T13:05:11;2.17;;;0.95;;
38715;SDS011;24833;49.324;8.694;2023-07-20T13:07:39;0.90;;;0.80;;
38715;SDS011;24833;49.324;8.694;2023-07-20T13:10:10;1.27;;;0.85;;
38715;SDS011;24833;49.324;8.694;2023-07-20T13:12:38;1.33;;;0.90;;
38715;SDS011;24833;49.324;8.694;2023-07-20T13:15:06;0.75;;;0.70;;
38715;SDS011;24833;49.324;8.694;2023-07-20T13:17:35;1.25;;;0.80;;
38715;SDS011;24833;49.324;8.694;2023-07-20T13:20:07;1.13;;;0.95;;
38715;SDS011;24833;49.324;8.694;2023-07-20T13:22:37;0.95;;;0.80;;
38715;SDS011;24833;49.324;8.694;2023-07-20T13:25:07;0.70;;;0.70;;
38715;SDS011;24833;49.324;8.694;2023-07-20T13:27:36;2.25;;;0.88;;
38715;SDS011;24833;49.324;8.694;2023-07-20T13:30:06;1.13;;;0.80;;
38715;SDS011;24833;49.324;8.694;2023-07-20T13:32:36;1.20;;;1.10;;
38715;SDS011;24833;49.324;8.694;2023-07-20T13:35:04;1.13;;;0.65;;
38715;SDS011;24833;49.324;8.694;2023-07-20T13:37:31;2.15;;;0.93;;
38715;SDS011;24833;49.324;8.694;2023-07-20T13:39:59;1.50;;;0.70;;
38715;SDS011;24833;49.324;8.694;2023-07-20T13:42:28;1.35;;;1.00;;
38715;SDS011;24833;49.324;8.694;2023-07-20T13:44:55;0.85;;;0.77;;
38715;SDS011;24833;49.324;8.694;2023-07-20T13:47:22;0.70;;;0.70;;
38715;SDS011;24833;49.324;8.694;2023-07-20T13:49:49;0.80;;;0.80;;
38715;SDS011;24833;49.324;8.694;2023-07-20T13:52:30;0.60;;;0.60;;
38715;SDS011;24833;49.324;8.694;2023-07-20T13:57:31;2.45;;;0.90;;
38715;SDS011;24833;49.324;8.694;2023-07-20T14:00:02;1.25;;;0.77;;
38715;SDS011;24833;49.324;8.694;2023-07-20T14:02:37;1.40;;;0.75;;
38715;SDS011;24833;49.324;8.694;2023-07-20T14:07:38;2.20;;;0.77;;
38715;SDS011;24833;49.324;8.694;2023-07-20T14:10:06;1.15;;;0.85;;
38715;SDS011;24833;49.324;8.694;2023-07-20T14:12:36;0.90;;;0.77;;
38715;SDS011;24833;49.324;8.694;2023-07-20T14:15:05;1.25;;;0.90;;
38715;SDS011;24833;49.324;8.694;2023-07-20T14:17:33;2.25;;;0.80;;
38715;SDS011;24833;49.324;8.694;2023-07-20T14:20:00;2.05;;;0.75;;
38715;SDS011;24833;49.324;8.694;2023-07-20T14:22:28;1.88;;;0.98;;
38715;SDS011;24833;49.324;8.694;2023-07-20T14:24:55;1.00;;;0.80;;
38715;SDS011;24833;49.324;8.694;2023-07-20T14:27:24;1.02;;;0.80;;
38715;SDS011;24833;49.324;8.694;2023-07-20T14:29:52;0.85;;;0.80;;
38715;SDS011;24833;49.324;8.694;2023-07-20T14:32:19;1.20;;;0.77;;
38715;SDS011;24833;49.324;8.694;2023-07-20T14:34:46;1.90;;;1.20;;
38715;SDS011;24833;49.324;8.694;2023-07-20T14:37:13;3.42;;;0.88;;
38715;SDS011;24833;49.324;8.694;2023-07-20T14:39:40;0.73;;;0.70;;
38715;SDS011;24833;49.324;8.694;2023-07-20T14:42:07;1.02;;;0.73;;
38715;SDS011;24833;49.324;8.694;2023-07-20T14:44:35;0.93;;;0.70;;
38715;SDS011;24833;49.324;8.694;2023-07-20T14:47:03;1.30;;;1.05;;
38715;SDS011;24833;49.324;8.694;2023-07-20T14:49:40;0.98;;;0.70;;
38715;SDS011;24833;49.324;8.694;2023-07-20T14:52:07;2.03;;;0.82;;
38715;SDS011;24833;49.324;8.694;2023-07-20T14:54:37;2.10;;;1.05;;
38715;SDS011;24833;49.324;8.694;2023-07-20T14:57:04;0.85;;;0.70;;
38715;SDS011;24833;49.324;8.694;2023-07-20T14:59:39;1.05;;;0.90;;
38715;SDS011;24833;49.324;8.694;2023-07-20T15:02:10;1.35;;;1.00;;
38715;SDS011;24833;49.324;8.694;2023-07-20T15:04:45;0.80;;;0.80;;
38715;SDS011;24833;49.324;8.694;2023-07-20T15:07:16;0.60;;;0.60;;
38715;SDS011;24833;49.324;8.694;2023-07-20T15:09:45;1.03;;;0.97;;
38715;SDS011;24833;49.324;8.694;2023-07-20T15:12:12;2.13;;;0.50;;
38715;SDS011;24833;49.324;8.694;2023-07-20T15:14:40;0.95;;;0.80;;
38715;SDS011;24833;49.324;8.694;2023-07-20T15:17:09;0.65;;;0.50;;
38715;SDS011;24833;49.324;8.694;2023-07-20T15:19:37;1.50;;;0.98;;
38715;SDS011;24833;49.324;8.694;2023-07-20T15:22:04;1.00;;;0.90;;
38715;SDS011;24833;49.324;8.694;2023-07-20T15:24:33;0.98;;;0.77;;
38715;SDS011;24833;49.324;8.694;2023-07-20T15:27:02;0.93;;;0.80;;
38715;SDS011;24833;49.324;8.694;2023-07-20T15:29:30;1.05;;;0.90;;
38715;SDS011;24833;49.324;8.694;2023-07-20T15:32:00;2.80;;;0.90;;
38715;SDS011;24833;49.324;8.694;2023-07-20T15:34:28;1.05;;;0.63;;
38715;SDS011;24833;49.324;8.694;2023-07-20T15:36:55;0.73;;;0.70;;
38715;SDS011;24833;49.324;8.694;2023-07-20T15:39:22;1.20;;;0.80;;
38715;SDS011;24833;49.324;8.694;2023-07-20T15:41:50;1.25;;;1.02;;
38715;SDS011;24833;49.324;8.694;2023-07-20T15:44:17;2.65;;;1.08;;